createdAt,value
2022-11-29T00:00:37.400Z,4.94
2022-11-29T00:03:03.927Z,4.88
2022-11-29T00:05:33.487Z,4.90
2022-11-29T00:07:59.855Z,4.93
2022-11-29T00:10:26.225Z,4.92
2022-11-29T00:12:52.563Z,4.95
2022-11-29T00:15:18.920Z,4.88
2022-11-29T00:17:45.320Z,4.98
2022-11-29T00:20:12.280Z,4.96
2022-11-29T00:22:39.843Z,4.87
2022-11-29T00:25:07.440Z,4.98
2022-11-29T00:27:33.810Z,4.99
2022-11-29T00:30:00.332Z,4.95
2022-11-29T00:32:26.739Z,5.02
2022-11-29T00:34:53.152Z,5.01
2022-11-29T00:37:19.538Z,5.03
2022-11-29T00:39:45.879Z,5.13
2022-11-29T00:42:12.282Z,5.18
2022-11-29T00:44:38.624Z,5.19
2022-11-29T00:47:05.027Z,5.23
2022-11-29T00:49:31.413Z,5.32
2022-11-29T00:51:57.825Z,5.30
2022-11-29T00:54:24.264Z,5.38
2022-11-29T00:56:50.617Z,5.34
2022-11-29T00:59:16.979Z,5.47
2022-11-29T01:01:43.458Z,5.43
2022-11-29T01:04:09.909Z,5.50
2022-11-29T01:06:36.295Z,5.49
2022-11-29T01:09:03.509Z,5.55
2022-11-29T01:11:29.906Z,5.50
2022-11-29T01:13:59.927Z,5.58
2022-11-29T01:16:27.500Z,5.55
2022-11-29T01:18:53.967Z,5.61
2022-11-29T01:21:23.142Z,5.62
2022-11-29T01:23:51.529Z,5.61
2022-11-29T01:26:21.099Z,5.60
2022-11-29T01:28:49.901Z,5.58
2022-11-29T01:31:23.188Z,5.65
2022-11-29T01:33:56.581Z,5.61
2022-11-29T01:36:23.970Z,5.66
2022-11-29T01:38:50.414Z,5.59
2022-11-29T01:41:23.472Z,5.61
2022-11-29T01:43:54.782Z,5.67
2022-11-29T01:46:21.186Z,5.66
2022-11-29T01:48:49.112Z,5.64
2022-11-29T01:51:15.739Z,5.65
2022-11-29T01:53:42.128Z,5.59
2022-11-29T01:56:10.279Z,5.55
2022-11-29T01:58:36.819Z,5.61
2022-11-29T02:01:03.223Z,5.62
2022-11-29T02:03:29.625Z,5.63
2022-11-29T02:05:56.108Z,5.55
2022-11-29T02:08:31.387Z,5.52
2022-11-29T02:11:20.713Z,5.53
2022-11-29T02:14:05.224Z,5.59
2022-11-29T02:16:37.551Z,5.58
2022-11-29T02:19:53.314Z,5.59
2022-11-29T02:22:32.441Z,5.59
2022-11-29T02:25:22.062Z,5.58
2022-11-29T02:28:09.671Z,5.58
2022-11-29T02:30:58.274Z,5.43
2022-11-29T02:33:43.397Z,5.54
2022-11-29T02:36:23.721Z,5.53
2022-11-29T02:39:08.788Z,5.50
2022-11-29T02:42:27.107Z,5.49
2022-11-29T02:45:18.785Z,5.49
2022-11-29T02:48:00.085Z,5.49
2022-11-29T02:50:43.868Z,5.47
2022-11-29T02:53:19.796Z,5.50
2022-11-29T02:56:01.501Z,5.51
2022-11-29T02:58:37.651Z,5.44
2022-11-29T03:01:15.648Z,5.52
2022-11-29T03:04:00.171Z,5.53
2022-11-29T03:06:47.903Z,5.53
2022-11-29T03:09:54.544Z,5.55
2022-11-29T03:12:40.111Z,5.45
2022-11-29T03:15:28.006Z,5.53
2022-11-29T03:18:41.735Z,5.52
2022-11-29T03:21:22.869Z,5.49
2022-11-29T03:23:59.729Z,5.56
2022-11-29T03:26:40.316Z,5.59
2022-11-29T03:29:16.212Z,5.57
2022-11-29T03:31:52.676Z,5.61
2022-11-29T03:34:37.777Z,5.63
2022-11-29T03:37:14.532Z,5.59
2022-11-29T03:40:05.802Z,5.65
2022-11-29T03:42:38.198Z,5.59
2022-11-29T03:45:11.195Z,5.66
2022-11-29T03:47:51.250Z,5.63
2022-11-29T03:50:24.995Z,5.70
2022-11-29T03:53:01.816Z,5.66
2022-11-29T03:55:57.042Z,5.61
2022-11-29T03:58:38.683Z,5.68
2022-11-29T04:01:29.287Z,5.66
2022-11-29T04:04:20.076Z,5.65
2022-11-29T04:07:20.497Z,5.64
2022-11-29T04:10:01.917Z,5.63
2022-11-29T04:12:37.927Z,5.50
2022-11-29T04:15:38.542Z,5.58
2022-11-29T04:18:41.762Z,5.56
2022-11-29T04:21:20.979Z,5.50
2022-11-29T04:23:59.672Z,5.49
2022-11-29T04:26:56.827Z,5.46
2022-11-29T04:29:54.390Z,5.43
2022-11-29T04:32:41.421Z,5.40
2022-11-29T04:35:28.479Z,5.36
2022-11-29T04:38:25.906Z,5.37
2022-11-29T04:40:55.340Z,5.30
2022-11-29T04:43:39.919Z,5.37
2022-11-29T04:46:38.290Z,5.32
2022-11-29T04:49:25.699Z,5.33
2022-11-29T04:52:13.229Z,5.41
2022-11-29T04:54:54.204Z,5.34
2022-11-29T04:57:39.978Z,5.35
2022-11-29T05:00:12.512Z,5.42
2022-11-29T05:03:04.488Z,5.49
2022-11-29T05:05:45.565Z,5.45
2022-11-29T05:08:17.445Z,5.49
2022-11-29T05:11:06.106Z,5.53
2022-11-29T05:13:53.929Z,5.53
2022-11-29T05:16:20.302Z,5.56
2022-11-29T05:18:58.772Z,5.57
2022-11-29T05:21:50.985Z,5.58
2022-11-29T05:24:22.422Z,5.60
2022-11-29T05:27:07.582Z,5.61
2022-11-29T05:29:43.200Z,5.59
2022-11-29T05:32:33.639Z,5.66
2022-11-29T05:35:18.418Z,5.64
2022-11-29T05:37:54.770Z,5.56
2022-11-29T05:40:40.581Z,5.65
2022-11-29T05:43:24.378Z,5.60
2022-11-29T05:46:12.748Z,5.61
2022-11-29T05:49:06.042Z,5.58
2022-11-29T05:52:17.422Z,5.60
2022-11-29T05:54:59.185Z,5.56
2022-11-29T05:57:50.029Z,5.51
2022-11-29T06:00:18.899Z,5.53
2022-11-29T06:02:57.380Z,5.55
2022-11-29T06:05:34.775Z,5.53
2022-11-29T06:08:07.069Z,5.48
2022-11-29T06:10:40.088Z,5.54
2022-11-29T06:13:35.023Z,5.49
2022-11-29T06:16:28.190Z,5.57
2022-11-29T06:19:34.329Z,5.56
2022-11-29T06:22:26.727Z,5.57
2022-11-29T06:25:08.051Z,5.58
2022-11-29T06:27:35.238Z,5.57
2022-11-29T06:30:11.624Z,5.55
2022-11-29T06:33:18.806Z,5.49
2022-11-29T06:36:09.190Z,5.57
2022-11-29T06:38:35.864Z,5.51
2022-11-29T06:41:02.653Z,5.49
2022-11-29T06:43:30.139Z,5.47
2022-11-29T06:46:04.275Z,5.55
2022-11-29T06:48:38.467Z,5.51
2022-11-29T06:51:37.387Z,5.57
2022-11-29T06:54:19.318Z,5.53
2022-11-29T06:57:32.006Z,5.57
2022-11-29T07:00:20.371Z,5.58
2022-11-29T07:02:58.689Z,5.58
2022-11-29T07:05:29.103Z,5.50
2022-11-29T07:07:58.369Z,5.58
2022-11-29T07:10:25.747Z,5.55
2022-11-29T07:12:52.415Z,5.53
2022-11-29T07:15:21.571Z,5.57
2022-11-29T07:18:09.850Z,5.55
2022-11-29T07:20:50.506Z,5.64
2022-11-29T07:23:45.691Z,5.60
2022-11-29T07:26:33.763Z,5.67
2022-11-29T07:29:21.940Z,5.68
2022-11-29T07:31:54.338Z,5.69
2022-11-29T07:34:38.840Z,5.70
2022-11-29T07:37:20.403Z,5.72
2022-11-29T07:39:55.087Z,5.73
2022-11-29T07:42:41.946Z,5.77
2022-11-29T07:45:37.827Z,5.78
2022-11-29T07:48:04.897Z,5.73
2022-11-29T07:50:31.736Z,5.81
2022-11-29T07:52:59.471Z,5.87
2022-11-29T07:55:26.894Z,5.91
2022-11-29T07:57:53.353Z,5.93
2022-11-29T08:00:20.383Z,5.88
2022-11-29T08:02:47.764Z,6.02
2022-11-29T08:05:14.150Z,6.00
2022-11-29T08:07:41.659Z,6.02
2022-11-29T08:10:12.876Z,5.92
2022-11-29T08:12:48.293Z,6.02
2022-11-29T08:15:15.048Z,6.02
2022-11-29T08:17:41.580Z,5.98
2022-11-29T08:20:09.785Z,6.06
2022-11-29T08:22:36.264Z,6.00
2022-11-29T08:25:02.958Z,6.05
2022-11-29T08:27:29.659Z,6.02
2022-11-29T08:29:56.035Z,6.05
2022-11-29T08:32:22.467Z,6.08
2022-11-29T08:34:49.024Z,6.06
2022-11-29T08:37:15.396Z,6.07
2022-11-29T08:39:43.896Z,6.12
2022-11-29T08:42:10.271Z,6.05
2022-11-29T08:44:36.650Z,6.09
2022-11-29T08:47:21.761Z,6.13
2022-11-29T08:50:03.076Z,6.08
2022-11-29T08:52:53.670Z,6.17
2022-11-29T08:55:22.580Z,6.17
2022-11-29T08:57:49.891Z,6.19
2022-11-29T09:00:17.319Z,6.22
2022-11-29T09:02:43.940Z,6.21
2022-11-29T09:05:11.417Z,6.30
2022-11-29T09:07:38.478Z,6.29
2022-11-29T09:10:08.212Z,6.34
2022-11-29T09:12:35.961Z,6.29
2022-11-29T09:15:05.048Z,6.31
2022-11-29T09:17:31.603Z,6.32
2022-11-29T09:19:57.998Z,6.32
2022-11-29T09:22:24.412Z,6.35
2022-11-29T09:24:50.836Z,6.37
2022-11-29T09:27:17.267Z,6.35
2022-11-29T09:29:43.635Z,6.42
2022-11-29T09:32:10.113Z,6.37
2022-11-29T09:34:36.772Z,6.41
2022-11-29T09:37:05.354Z,6.39
2022-11-29T09:39:31.830Z,6.44
2022-11-29T09:42:07.441Z,6.45
2022-11-29T09:45:02.142Z,6.47
2022-11-29T09:47:34.511Z,6.50
2022-11-29T09:50:34.899Z,6.52
2022-11-29T09:53:24.938Z,6.49
2022-11-29T09:56:15.861Z,6.52
2022-11-29T09:58:48.110Z,6.53
2022-11-29T10:01:26.165Z,6.55
2022-11-29T10:03:58.229Z,6.57
2022-11-29T10:06:32.724Z,6.58
2022-11-29T10:09:33.336Z,6.60
2022-11-29T10:12:07.231Z,6.63
2022-11-29T10:14:45.874Z,6.55
2022-11-29T10:17:36.672Z,6.60
2022-11-29T10:20:28.877Z,6.63
2022-11-29T10:23:25.772Z,6.64
2022-11-29T10:25:55.387Z,6.62
2022-11-29T10:28:25.797Z,6.61
2022-11-29T10:30:55.408Z,6.55
2022-11-29T10:33:27.108Z,6.53
2022-11-29T10:35:57.572Z,6.55
2022-11-29T10:38:32.107Z,6.56
2022-11-29T10:41:09.766Z,6.57
2022-11-29T10:43:37.393Z,6.49
2022-11-29T10:46:06.967Z,6.60
2022-11-29T10:48:34.216Z,6.60
2022-11-29T10:51:01.482Z,6.55
2022-11-29T10:53:31.991Z,6.48
2022-11-29T10:56:16.795Z,6.55
2022-11-29T10:59:05.285Z,6.55
2022-11-29T11:01:36.990Z,6.51
2022-11-29T11:04:07.325Z,6.53
2022-11-29T11:06:49.518Z,6.49
2022-11-29T11:09:46.975Z,6.55
2022-11-29T11:12:16.387Z,6.56
2022-11-29T11:14:45.243Z,6.50
2022-11-29T11:17:33.702Z,6.44
2022-11-29T11:20:19.629Z,6.58
2022-11-29T11:22:58.591Z,6.48
2022-11-29T11:25:35.139Z,6.48
2022-11-29T11:28:15.405Z,6.56
2022-11-29T11:30:53.959Z,6.55
2022-11-29T11:33:29.758Z,6.45
2022-11-29T11:36:00.630Z,6.55
2022-11-29T11:38:27.391Z,6.46
2022-11-29T11:41:18.250Z,6.55
2022-11-29T11:44:14.987Z,6.54
2022-11-29T11:46:51.856Z,6.53
2022-11-29T11:49:50.284Z,6.47
2022-11-29T11:52:30.029Z,6.47
2022-11-29T11:55:02.882Z,6.47
2022-11-29T11:57:30.332Z,6.46
2022-11-29T12:00:03.439Z,6.51
2022-11-29T12:02:38.967Z,6.50
2022-11-29T12:05:13.838Z,6.51
2022-11-29T12:10:37.581Z,6.47
2022-11-29T12:13:04.803Z,6.51
2022-11-29T12:15:38.528Z,6.49
2022-11-29T12:18:24.604Z,6.44
2022-11-29T12:20:55.873Z,6.48
2022-11-29T12:23:40.267Z,6.44
2022-11-29T12:26:48.549Z,6.56
2022-11-29T12:29:02.741Z,6.57
2022-11-29T12:32:06.521Z,6.64
2022-11-29T12:35:00.992Z,6.57
2022-11-29T12:37:43.057Z,6.56
2022-11-29T12:40:17.897Z,6.54
2022-11-29T12:43:02.087Z,6.55
2022-11-29T12:45:40.897Z,6.58
2022-11-29T12:48:51.698Z,6.57
2022-11-29T12:51:39.878Z,6.56
2022-11-29T12:54:36.623Z,6.58
2022-11-29T12:57:26.949Z,6.59
2022-11-29T13:00:10.650Z,6.68
2022-11-29T13:03:18.954Z,6.62
2022-11-29T13:05:52.115Z,6.64
2022-11-29T13:08:39.844Z,6.65
2022-11-29T13:11:29.290Z,6.64
2022-11-29T13:17:31.942Z,6.61
2022-11-29T13:20:16.371Z,6.67
2022-11-29T13:22:45.764Z,6.71
2022-11-29T13:25:20.806Z,6.75
2022-11-29T13:27:58.896Z,6.65
2022-11-29T13:30:26.164Z,6.67
2022-11-29T13:33:10.702Z,6.61
2022-11-29T13:35:48.002Z,6.71
2022-11-29T13:38:39.248Z,6.80
2022-11-29T13:41:17.012Z,6.80
2022-11-29T13:43:56.549Z,6.76
2022-11-29T13:46:30.785Z,6.81
2022-11-29T13:48:57.396Z,6.79
2022-11-29T13:51:28.773Z,6.82
2022-11-29T13:53:57.347Z,6.77
2022-11-29T13:56:46.341Z,6.80
2022-11-29T13:59:27.784Z,6.85
2022-11-29T14:01:54.682Z,6.86
2022-11-29T14:04:34.559Z,6.86
2022-11-29T14:07:03.835Z,6.82
2022-11-29T14:09:35.204Z,6.77
2022-11-29T14:12:17.077Z,6.71
2022-11-29T14:14:54.133Z,6.83
2022-11-29T14:17:57.308Z,6.86
2022-11-29T14:20:23.675Z,6.88
2022-11-29T14:23:05.079Z,6.79
2022-11-29T14:28:23.106Z,6.70
2022-11-29T14:30:58.245Z,6.59
2022-11-29T14:34:00.256Z,6.61
2022-11-29T14:36:50.331Z,6.60
2022-11-29T14:39:43.995Z,6.54
2022-11-29T14:42:18.342Z,6.52
2022-11-29T14:44:49.312Z,6.50
2022-11-29T14:47:23.986Z,6.50
2022-11-29T14:49:52.915Z,6.43
2022-11-29T14:52:26.449Z,6.39
2022-11-29T14:54:58.952Z,6.44
2022-11-29T14:57:51.174Z,6.32
2022-11-29T15:00:32.366Z,6.23
2022-11-29T15:03:09.778Z,6.37
2022-11-29T15:05:40.356Z,6.23
2022-11-29T15:08:25.088Z,6.27
2022-11-29T15:11:17.821Z,6.21
2022-11-29T15:14:19.098Z,6.03
2022-11-29T15:17:00.777Z,6.07
2022-11-29T15:19:35.862Z,6.11
2022-11-29T15:22:17.877Z,6.09
2022-11-29T15:24:52.759Z,5.92
2022-11-29T15:27:19.931Z,5.89
2022-11-29T15:29:48.251Z,5.92
2022-11-29T15:32:26.978Z,5.83
2022-11-29T15:34:55.830Z,5.83
2022-11-29T15:37:42.552Z,5.72
2022-11-29T15:40:17.658Z,5.84
2022-11-29T15:42:50.578Z,5.74
2022-11-29T15:45:34.141Z,5.77
2022-11-29T15:48:33.403Z,5.70
2022-11-29T15:51:06.143Z,5.67
2022-11-29T15:53:38.712Z,5.53
2022-11-29T15:56:36.019Z,5.59
2022-11-29T15:59:08.902Z,5.51
2022-11-29T16:01:37.404Z,5.45
2022-11-29T16:04:04.049Z,5.51
2022-11-29T16:06:36.038Z,5.46
2022-11-29T16:09:03.064Z,5.45
2022-11-29T16:11:31.624Z,5.45
2022-11-29T16:14:12.813Z,5.44
2022-11-29T16:16:40.638Z,5.36
2022-11-29T16:19:16.956Z,5.38
2022-11-29T16:21:44.318Z,5.37
2022-11-29T16:24:14.035Z,5.32
2022-11-29T16:26:44.292Z,5.23
2022-11-29T16:29:24.725Z,5.26
2022-11-29T16:31:52.104Z,5.14
2022-11-29T16:34:24.255Z,5.22
2022-11-29T16:37:01.200Z,5.16
2022-11-29T16:39:28.192Z,5.16
2022-11-29T16:42:18.323Z,5.26
2022-11-29T16:45:03.960Z,5.12
2022-11-29T16:47:52.854Z,5.17
2022-11-29T16:50:22.241Z,5.03
2022-11-29T16:52:56.112Z,4.89
2022-11-29T16:55:23.075Z,4.85
2022-11-29T16:57:49.908Z,4.81
2022-11-29T17:00:33.218Z,4.70
2022-11-29T17:02:59.893Z,4.72
2022-11-29T17:05:27.063Z,4.79
2022-11-29T17:07:53.729Z,4.76
2022-11-29T17:10:23.957Z,4.71
2022-11-29T17:12:50.400Z,4.73
2022-11-29T17:15:16.806Z,4.68
2022-11-29T17:17:43.569Z,4.61
2022-11-29T17:20:12.117Z,4.61
2022-11-29T17:22:38.518Z,4.75
2022-11-29T17:25:05.256Z,4.70
2022-11-29T17:27:31.608Z,4.65
2022-11-29T17:29:58.003Z,4.55
2022-11-29T17:32:26.884Z,4.54
2022-11-29T17:34:53.556Z,4.57
2022-11-29T17:37:20.000Z,4.58
2022-11-29T17:39:48.330Z,4.53
2022-11-29T17:42:14.973Z,4.53
2022-11-29T17:44:41.464Z,4.58
2022-11-29T17:47:07.891Z,4.55
2022-11-29T17:49:34.263Z,4.54
2022-11-29T17:52:00.707Z,4.58
2022-11-29T17:54:27.092Z,4.56
2022-11-29T17:56:53.574Z,4.59
2022-11-29T17:59:20.374Z,4.58
2022-11-29T18:01:49.816Z,4.50
2022-11-29T18:04:16.414Z,4.59
2022-11-29T18:06:43.556Z,4.69
2022-11-29T18:09:10.878Z,4.92
2022-11-29T18:11:48.303Z,4.86
2022-11-29T18:14:27.908Z,4.89
2022-11-29T18:16:54.470Z,4.86
2022-11-29T18:19:22.358Z,4.90
2022-11-29T18:21:49.593Z,4.98
2022-11-29T18:24:16.184Z,5.03
2022-11-29T18:26:42.832Z,4.99
2022-11-29T18:29:10.038Z,4.96
2022-11-29T18:31:39.447Z,5.10
2022-11-29T18:34:09.337Z,5.10
2022-11-29T18:36:43.002Z,5.08
2022-11-29T18:39:18.353Z,4.94
2022-11-29T18:41:47.377Z,4.96
2022-11-29T18:44:15.551Z,5.03
2022-11-29T18:46:44.020Z,5.03
2022-11-29T18:49:12.976Z,4.98
2022-11-29T18:51:41.038Z,4.96
2022-11-29T18:54:07.444Z,4.94
2022-11-29T18:56:35.155Z,4.97
2022-11-29T18:59:04.821Z,4.93
2022-11-29T19:01:34.289Z,5.07
2022-11-29T19:04:01.630Z,5.03
2022-11-29T19:06:37.149Z,5.03
2022-11-29T19:09:06.315Z,4.96
2022-11-29T19:11:33.731Z,5.04
2022-11-29T19:14:03.850Z,5.04
2022-11-29T19:16:32.370Z,4.98
2022-11-29T19:18:59.835Z,5.05
2022-11-29T19:21:29.120Z,5.06
2022-11-29T19:23:58.390Z,5.05
2022-11-29T19:26:27.027Z,4.99
2022-11-29T19:28:54.131Z,5.02
2022-11-29T19:31:25.064Z,4.96
2022-11-29T19:33:52.649Z,4.95
2022-11-29T19:36:27.761Z,5.03
2022-11-29T19:38:54.838Z,5.02
2022-11-29T19:41:27.794Z,5.10
2022-11-29T19:43:56.441Z,5.16
2022-11-29T19:46:25.758Z,5.14
2022-11-29T19:48:53.785Z,5.17
2022-11-29T19:51:20.444Z,5.24
2022-11-29T19:53:47.412Z,5.30
2022-11-29T19:56:16.258Z,5.29
2022-11-29T19:58:43.664Z,5.33
2022-11-29T20:01:17.080Z,5.17
2022-11-29T20:03:44.884Z,5.22
2022-11-29T20:06:11.974Z,5.14
2022-11-29T20:08:38.509Z,5.12
2022-11-29T20:11:10.652Z,5.16
2022-11-29T20:13:38.159Z,5.19
2022-11-29T20:16:12.870Z,5.09
2022-11-29T20:18:45.741Z,5.12
2022-11-29T20:21:18.611Z,5.15
2022-11-29T20:23:44.978Z,5.11
2022-11-29T20:26:17.682Z,5.08
2022-11-29T20:28:44.658Z,5.13
2022-11-29T20:31:17.487Z,5.07
2022-11-29T20:33:45.535Z,5.11
2022-11-29T20:36:32.999Z,5.15
2022-11-29T20:39:08.363Z,5.21
2022-11-29T20:42:00.570Z,5.12
2022-11-29T20:44:37.765Z,5.13
2022-11-29T20:47:19.148Z,5.11
2022-11-29T20:49:46.315Z,5.07
2022-11-29T20:52:37.556Z,5.14
2022-11-29T20:55:05.160Z,5.13
2022-11-29T20:57:31.591Z,5.22
2022-11-29T20:59:57.945Z,5.19
2022-11-29T21:02:24.736Z,5.15
2022-11-29T21:04:51.515Z,5.20
2022-11-29T21:07:18.000Z,5.08
2022-11-29T21:09:44.948Z,5.20
2022-11-29T21:12:11.960Z,5.25
2022-11-29T21:14:38.584Z,5.19
2022-11-29T21:17:05.335Z,5.23
2022-11-29T21:19:32.003Z,5.20
2022-11-29T21:22:35.751Z,5.20
2022-11-29T21:25:14.319Z,5.20
2022-11-29T21:27:41.034Z,5.17
2022-11-29T21:30:18.931Z,5.15
2022-11-29T21:32:45.954Z,5.15
2022-11-29T21:35:12.982Z,5.23
2022-11-29T21:37:39.457Z,5.17
2022-11-29T21:40:06.602Z,5.19
2022-11-29T21:42:33.091Z,5.10
2022-11-29T21:44:59.521Z,5.10
2022-11-29T21:47:25.874Z,5.06
2022-11-29T21:49:54.199Z,5.00
2022-11-29T21:52:22.861Z,5.00
2022-11-29T21:54:50.081Z,5.00
2022-11-29T21:57:16.447Z,4.96
2022-11-29T21:59:42.815Z,4.92
2022-11-29T22:02:09.509Z,4.95
2022-11-29T22:04:35.982Z,4.87
2022-11-29T22:07:02.378Z,4.86
2022-11-29T22:09:28.870Z,4.85
2022-11-29T22:11:55.213Z,4.86
2022-11-29T22:14:21.556Z,4.81
2022-11-29T22:16:50.452Z,4.85
2022-11-29T22:19:21.788Z,4.90
2022-11-29T22:21:52.037Z,4.83
2022-11-29T22:24:20.561Z,4.84
2022-11-29T22:26:48.328Z,4.83
2022-11-29T22:29:14.969Z,4.77
2022-11-29T22:31:42.769Z,4.82
2022-11-29T22:34:09.603Z,4.83
2022-11-29T22:36:37.383Z,4.81
2022-11-29T22:39:05.240Z,4.76
2022-11-29T22:41:33.148Z,4.76
2022-11-29T22:43:59.523Z,4.72
2022-11-29T22:46:27.786Z,4.68
2022-11-29T22:48:56.148Z,4.72
2022-11-29T22:51:25.783Z,4.67
2022-11-29T22:53:54.355Z,4.72
2022-11-29T22:56:22.861Z,4.68
2022-11-29T22:58:49.832Z,4.67
2022-11-29T23:01:18.601Z,4.61
2022-11-29T23:03:53.751Z,4.70
2022-11-29T23:06:26.090Z,4.72
2022-11-29T23:08:54.714Z,4.79
2022-11-29T23:11:23.627Z,4.71
2022-11-29T23:13:50.474Z,4.73
2022-11-29T23:16:22.204Z,4.78
2022-11-29T23:18:48.885Z,4.81
2022-11-29T23:21:27.212Z,4.80
2022-11-29T23:23:56.526Z,4.80
2022-11-29T23:26:26.095Z,4.82
2022-11-29T23:28:53.644Z,4.85
2022-11-29T23:31:20.752Z,4.85
2022-11-29T23:33:47.676Z,4.89
2022-11-29T23:36:15.314Z,4.89
2022-11-29T23:38:42.411Z,4.88
2022-11-29T23:41:09.785Z,4.88
2022-11-29T23:43:38.907Z,4.91
2022-11-29T23:46:07.124Z,4.91
2022-11-29T23:48:33.573Z,4.96
2022-11-29T23:51:00.178Z,4.92
2022-11-29T23:53:26.926Z,4.95
2022-11-29T23:55:58.057Z,5.05
2022-11-29T23:58:25.217Z,5.11
